createdAt,value
2023-05-15T00:00:32.646Z,101276.66
2023-05-15T00:02:59.027Z,101280.94
2023-05-15T00:05:25.674Z,101275.53
2023-05-15T00:07:52.267Z,101273.72
2023-05-15T00:10:18.654Z,101270.22
2023-05-15T00:12:45.070Z,101268.50
2023-05-15T00:15:11.468Z,101263.25
2023-05-15T00:17:37.884Z,101264.06
2023-05-15T00:20:05.231Z,101264.03
2023-05-15T00:22:31.570Z,101262.34
2023-05-15T00:24:59.498Z,101258.84
2023-05-15T00:27:26.584Z,101254.41
2023-05-15T00:29:52.978Z,101258.72
2023-05-15T00:32:19.404Z,101266.63
2023-05-15T00:34:45.772Z,101263.03
2023-05-15T00:37:12.141Z,101263.88
2023-05-15T00:39:38.453Z,101258.53
2023-05-15T00:42:05.835Z,101273.38
2023-05-15T00:44:32.319Z,101267.16
2023-05-15T00:46:59.539Z,101266.28
2023-05-15T00:49:27.589Z,101258.38
2023-05-15T00:51:54.189Z,101262.78
2023-05-15T00:54:20.844Z,101262.72
2023-05-15T00:56:47.815Z,101255.75
2023-05-15T00:59:14.623Z,101253.09
2023-05-15T01:01:41.270Z,101251.31
2023-05-15T01:04:07.632Z,101256.59
2023-05-15T01:06:33.969Z,101257.44
2023-05-15T01:09:06.809Z,101239.06
2023-05-15T01:11:36.387Z,101245.13
2023-05-15T01:14:06.913Z,101242.47
2023-05-15T01:16:33.995Z,101243.31
2023-05-15T01:19:00.487Z,101253.75
2023-05-15T01:21:33.881Z,101243.13
2023-05-15T01:24:03.215Z,101241.31
2023-05-15T01:26:35.690Z,101238.69
2023-05-15T01:29:08.413Z,101239.59
2023-05-15T01:31:35.679Z,101239.59
2023-05-15T01:34:03.569Z,101234.31
2023-05-15T01:36:34.123Z,101237.88
2023-05-15T01:39:02.219Z,101233.50
2023-05-15T01:41:31.563Z,101237.91
2023-05-15T01:44:04.916Z,101231.72
2023-05-15T01:46:31.704Z,101228.16
2023-05-15T01:48:58.481Z,101229.94
2023-05-15T01:51:26.198Z,101224.69
2023-05-15T01:53:53.764Z,101219.44
2023-05-15T01:56:22.092Z,101213.28
2023-05-15T01:58:49.375Z,101222.09
2023-05-15T02:01:16.722Z,101226.50
2023-05-15T02:03:44.243Z,101224.69
2023-05-15T02:06:11.306Z,101217.63
2023-05-15T02:08:37.983Z,101221.09
2023-05-15T02:11:04.963Z,101221.03
2023-05-15T02:13:32.137Z,101211.41
2023-05-15T02:15:58.565Z,101214.06
2023-05-15T02:18:25.168Z,101214.06
2023-05-15T02:20:51.753Z,101215.81
2023-05-15T02:23:18.176Z,101209.72
2023-05-15T02:25:50.176Z,101206.19
2023-05-15T02:28:27.228Z,101200.13
2023-05-15T02:31:01.116Z,101192.28
2023-05-15T02:33:31.237Z,101200.19
2023-05-15T02:36:07.868Z,101190.50
2023-05-15T02:39:00.772Z,101192.25
2023-05-15T02:41:27.720Z,101190.47
2023-05-15T02:43:55.562Z,101183.47
2023-05-15T02:46:22.054Z,101191.44
2023-05-15T02:48:48.855Z,101187.00
2023-05-15T02:51:15.244Z,101187.94
2023-05-15T02:53:42.262Z,101183.47
2023-05-15T02:56:08.925Z,101186.03
2023-05-15T02:58:35.452Z,101185.06
2023-05-15T03:01:01.822Z,101183.31
2023-05-15T03:03:28.133Z,101187.59
2023-05-15T03:05:54.456Z,101186.69
2023-05-15T03:08:21.880Z,101184.91
2023-05-15T03:10:48.199Z,101181.44
2023-05-15T03:13:16.630Z,101182.31
2023-05-15T03:15:45.777Z,101178.78
2023-05-15T03:18:12.241Z,101181.41
2023-05-15T03:20:38.620Z,101171.81
2023-05-15T03:23:08.317Z,101173.53
2023-05-15T03:25:34.749Z,101165.63
2023-05-15T03:28:01.208Z,101167.34
2023-05-15T03:30:27.613Z,101163.88
2023-05-15T03:32:54.032Z,101157.75
2023-05-15T03:35:20.419Z,101156.91
2023-05-15T03:37:46.745Z,101156.09
2023-05-15T03:40:13.408Z,101151.75
2023-05-15T03:42:39.788Z,101154.44
2023-05-15T03:45:06.528Z,101150.91
2023-05-15T03:47:32.965Z,101143.97
2023-05-15T03:49:59.384Z,101153.66
2023-05-15T03:52:25.862Z,101145.84
2023-05-15T03:54:52.245Z,101145.03
2023-05-15T03:57:18.570Z,101139.75
2023-05-15T03:59:44.990Z,101138.94
2023-05-15T04:02:11.400Z,101138.97
2023-05-15T04:04:38.685Z,101135.44
2023-05-15T04:07:05.934Z,101136.31
2023-05-15T04:09:32.261Z,101133.69
2023-05-15T04:11:58.588Z,101133.66
2023-05-15T04:14:24.943Z,101130.97
2023-05-15T04:16:51.444Z,101123.03
2023-05-15T04:19:18.155Z,101134.44
2023-05-15T04:21:44.542Z,101123.88
2023-05-15T04:24:10.884Z,101126.56
2023-05-15T04:26:37.805Z,101123.94
2023-05-15T04:29:04.883Z,101128.38
2023-05-15T04:31:32.146Z,101124.09
2023-05-15T04:33:58.536Z,101123.28
2023-05-15T04:36:24.982Z,101123.38
2023-05-15T04:38:53.165Z,101126.00
2023-05-15T04:41:19.566Z,101127.81
2023-05-15T04:43:46.004Z,101127.94
2023-05-15T04:46:12.427Z,101128.94
2023-05-15T04:48:38.793Z,101122.06
2023-05-15T04:51:05.588Z,101115.19
2023-05-15T04:53:31.940Z,101114.38
2023-05-15T04:55:58.324Z,101116.22
2023-05-15T04:58:24.688Z,101121.56
2023-05-15T05:00:51.099Z,101115.50
2023-05-15T05:03:17.505Z,101122.66
2023-05-15T05:05:43.954Z,101122.75
2023-05-15T05:08:10.276Z,101112.25
2023-05-15T05:10:36.635Z,101107.03
2023-05-15T05:13:02.992Z,101105.28
2023-05-15T05:15:29.491Z,101118.53
2023-05-15T05:17:55.926Z,101116.81
2023-05-15T05:20:22.268Z,101116.84
2023-05-15T05:22:48.638Z,101115.13
2023-05-15T05:25:14.958Z,101110.78
2023-05-15T05:27:41.347Z,101104.59
2023-05-15T05:30:08.695Z,101094.00
2023-05-15T05:32:35.236Z,101096.63
2023-05-15T05:35:01.755Z,101099.25
2023-05-15T05:37:28.106Z,101098.34
2023-05-15T05:39:54.859Z,101092.97
2023-05-15T05:42:21.205Z,101094.63
2023-05-15T05:44:47.561Z,101094.50
2023-05-15T05:47:14.319Z,101090.00
2023-05-15T05:49:40.883Z,101093.38
2023-05-15T05:52:08.030Z,101091.38
2023-05-15T05:54:34.429Z,101093.94
2023-05-15T05:57:01.140Z,101092.88
2023-05-15T05:59:27.614Z,101090.00
2023-05-15T06:01:54.048Z,101084.50
2023-05-15T06:04:21.129Z,101087.91
2023-05-15T06:06:47.476Z,101090.31
2023-05-15T06:09:13.807Z,101082.94
2023-05-15T06:11:40.336Z,101078.38
2023-05-15T06:14:08.360Z,101081.69
2023-05-15T06:16:34.882Z,101069.16
2023-05-15T06:19:01.246Z,101065.34
2023-05-15T06:21:27.567Z,101062.59
2023-05-15T06:23:53.889Z,101053.56
2023-05-15T06:26:21.891Z,101051.50
2023-05-15T06:28:48.240Z,101057.31
2023-05-15T06:31:14.637Z,101053.50
2023-05-15T06:33:41.244Z,101059.38
2023-05-15T06:36:07.730Z,101056.63
2023-05-15T06:38:34.239Z,101045.03
2023-05-15T06:41:00.680Z,101046.41
2023-05-15T06:43:27.000Z,101043.91
2023-05-15T06:45:53.518Z,101037.47
2023-05-15T06:48:20.039Z,101037.97
2023-05-15T06:50:46.562Z,101034.16
2023-05-15T06:53:14.505Z,101033.03
2023-05-15T06:55:41.152Z,101033.66
2023-05-15T06:58:07.533Z,101038.66
2023-05-15T07:00:33.896Z,101034.44
2023-05-15T07:03:00.422Z,101035.91
2023-05-15T07:07:53.150Z,101041.56
2023-05-15T07:10:19.534Z,101039.41
2023-05-15T07:12:46.094Z,101036.34
2023-05-15T07:15:12.418Z,101031.50
2023-05-15T07:17:38.918Z,101031.09
2023-05-15T07:20:06.129Z,101033.09
2023-05-15T07:22:34.414Z,101036.78
2023-05-15T07:25:02.735Z,101025.53
2023-05-15T07:27:29.048Z,101018.78
2023-05-15T07:29:55.397Z,101016.31
2023-05-15T07:32:21.836Z,101018.94
2023-05-15T07:34:48.220Z,101018.59
2023-05-15T07:37:16.707Z,101014.50
2023-05-15T07:39:43.462Z,101012.53
2023-05-15T07:42:09.895Z,101014.13
2023-05-15T07:44:36.252Z,101014.09
2023-05-15T07:47:02.578Z,101013.31
2023-05-15T07:49:29.066Z,101008.44
2023-05-15T07:51:55.632Z,101008.22
2023-05-15T07:54:22.043Z,101007.81
2023-05-15T07:56:48.413Z,101010.41
2023-05-15T07:59:14.867Z,101001.84
2023-05-15T08:01:41.285Z,100997.47
2023-05-15T08:04:08.995Z,100990.34
2023-05-15T08:06:38.073Z,100994.66
2023-05-15T08:09:04.609Z,100990.03
2023-05-15T08:11:31.608Z,100990.09
2023-05-15T08:13:58.154Z,100985.69
2023-05-15T08:16:24.714Z,100987.28
2023-05-15T08:18:53.509Z,100980.97
2023-05-15T08:21:19.991Z,100970.47
2023-05-15T08:23:46.366Z,100973.56
2023-05-15T08:26:12.784Z,100972.94
2023-05-15T08:28:39.152Z,100972.13
2023-05-15T08:31:05.527Z,100974.63
2023-05-15T08:33:31.986Z,100973.84
2023-05-15T08:35:58.712Z,100977.53
2023-05-15T08:38:25.140Z,100968.31
2023-05-15T08:40:52.984Z,100963.84
2023-05-15T08:43:21.125Z,100961.03
2023-05-15T08:45:47.841Z,100953.28
2023-05-15T08:48:16.104Z,100940.50
2023-05-15T08:50:44.872Z,100950.97
2023-05-15T08:53:14.560Z,100939.09
2023-05-15T08:55:41.681Z,100929.50
2023-05-15T08:58:09.001Z,100939.63
2023-05-15T09:00:36.011Z,100937.75
2023-05-15T09:03:02.591Z,100945.69
2023-05-15T09:05:29.677Z,100937.91
2023-05-15T09:07:56.665Z,100934.53
2023-05-15T09:10:23.095Z,100941.25
2023-05-15T09:12:50.903Z,100938.41
2023-05-15T09:15:18.469Z,100944.66
2023-05-15T09:17:45.594Z,100936.94
2023-05-15T09:20:25.457Z,100945.97
2023-05-15T09:22:51.817Z,100945.84
2023-05-15T09:25:52.966Z,100941.75
2023-05-15T09:28:32.377Z,100932.44
2023-05-15T09:31:00.466Z,100940.38
2023-05-15T09:33:33.900Z,100933.53
2023-05-15T09:36:00.912Z,100932.06
2023-05-15T09:38:27.546Z,100935.50
2023-05-15T09:41:04.067Z,100928.47
2023-05-15T09:43:33.658Z,100935.94
2023-05-15T09:46:00.181Z,100933.53
2023-05-15T09:50:53.659Z,100928.69
2023-05-15T09:53:21.666Z,100936.59
2023-05-15T09:55:48.121Z,100933.03
2023-05-15T09:58:15.836Z,100929.16
2023-05-15T10:00:48.840Z,100922.25
2023-05-15T10:03:15.793Z,100926.97
2023-05-15T10:05:43.938Z,100929.16
2023-05-15T10:08:10.752Z,100917.97
2023-05-15T10:10:37.094Z,100922.00
2023-05-15T10:13:04.706Z,100909.03
2023-05-15T10:15:31.916Z,100909.69
2023-05-15T10:17:58.800Z,100913.41
2023-05-15T10:20:26.222Z,100906.41
2023-05-15T10:22:54.326Z,100910.06
2023-05-15T10:25:35.699Z,100905.81
2023-05-15T10:28:02.420Z,100910.72
2023-05-15T10:30:29.121Z,100910.69
2023-05-15T10:32:56.266Z,100899.00
2023-05-15T10:35:23.005Z,100906.69
2023-05-15T10:37:49.402Z,100904.13
2023-05-15T10:40:16.703Z,100906.16
2023-05-15T10:42:44.567Z,100902.88
2023-05-15T10:45:11.421Z,100898.63
2023-05-15T10:47:38.882Z,100896.47
2023-05-15T10:50:06.245Z,100896.78
2023-05-15T10:52:33.516Z,100889.38
2023-05-15T10:55:00.584Z,100893.22
2023-05-15T10:57:30.116Z,100889.22
2023-05-15T10:59:56.675Z,100885.91
2023-05-15T11:02:24.240Z,100886.91
2023-05-15T11:04:54.701Z,100883.16
2023-05-15T11:07:21.371Z,100885.41
2023-05-15T11:09:47.720Z,100881.09
2023-05-15T11:12:14.102Z,100881.88
2023-05-15T11:14:44.647Z,100891.31
2023-05-15T11:17:11.893Z,100880.75
2023-05-15T11:19:38.310Z,100875.88
2023-05-15T11:22:21.220Z,100882.09
2023-05-15T11:24:50.999Z,100873.84
2023-05-15T11:27:24.421Z,100877.91
2023-05-15T11:30:02.905Z,100876.44
2023-05-15T11:32:39.778Z,100871.94
2023-05-15T11:35:09.837Z,100864.50
2023-05-15T11:38:02.359Z,100869.94
2023-05-15T11:40:30.070Z,100871.94
2023-05-15T11:43:06.881Z,100875.59
2023-05-15T11:45:34.276Z,100865.69
2023-05-15T11:48:01.310Z,100869.81
2023-05-15T11:50:28.091Z,100871.34
2023-05-15T11:52:54.877Z,100867.41
2023-05-15T11:55:21.696Z,100862.50
2023-05-15T11:57:48.026Z,100855.28
2023-05-15T12:00:14.621Z,100866.59
2023-05-15T12:02:41.119Z,100860.00
2023-05-15T12:05:08.599Z,100857.47
2023-05-15T12:07:41.628Z,100858.84
2023-05-15T12:10:09.927Z,100863.09
2023-05-15T12:12:37.389Z,100858.34
2023-05-15T12:15:05.620Z,100858.84
2023-05-15T12:17:33.083Z,100852.88
2023-05-15T12:19:59.830Z,100848.03
2023-05-15T12:22:26.192Z,100848.16
2023-05-15T12:24:52.563Z,100848.66
2023-05-15T12:27:19.008Z,100848.97
2023-05-15T12:29:45.919Z,100842.13
2023-05-15T12:32:12.399Z,100847.63
2023-05-15T12:34:38.877Z,100842.94
2023-05-15T12:37:05.542Z,100839.50
2023-05-15T12:39:31.893Z,100838.28
2023-05-15T12:41:58.487Z,100841.53
2023-05-15T12:44:26.524Z,100827.97
2023-05-15T12:46:53.832Z,100826.28
2023-05-15T12:49:23.240Z,100827.81
2023-05-15T12:51:50.073Z,100816.50
2023-05-15T12:54:17.721Z,100824.63
2023-05-15T12:56:44.534Z,100825.41
2023-05-15T12:59:11.445Z,100823.06
2023-05-15T13:01:38.013Z,100814.31
2023-05-15T13:04:05.062Z,100817.34
2023-05-15T13:06:44.975Z,100813.97
2023-05-15T13:09:12.599Z,100810.69
2023-05-15T13:11:43.267Z,100820.19
2023-05-15T13:14:17.153Z,100811.47
2023-05-15T13:16:44.866Z,100806.69
2023-05-15T13:19:11.612Z,100803.00
2023-05-15T13:21:38.160Z,100801.50
2023-05-15T13:24:04.942Z,100792.72
2023-05-15T13:26:31.268Z,100795.81
2023-05-15T13:28:57.665Z,100783.22
2023-05-15T13:31:24.094Z,100784.16
2023-05-15T13:33:50.531Z,100780.75
2023-05-15T13:36:16.894Z,100781.91
2023-05-15T13:38:43.224Z,100784.88
2023-05-15T13:41:09.645Z,100787.44
2023-05-15T13:43:36.104Z,100782.66
2023-05-15T13:46:02.530Z,100779.69
2023-05-15T13:48:28.952Z,100778.34
2023-05-15T13:50:55.286Z,100779.50
2023-05-15T13:53:21.633Z,100780.41
2023-05-15T13:55:48.005Z,100775.19
2023-05-15T13:58:14.672Z,100775.63
2023-05-15T14:00:42.523Z,100779.38
2023-05-15T14:03:08.993Z,100776.69
2023-05-15T14:05:35.614Z,100776.81
2023-05-15T14:08:02.156Z,100779.66
2023-05-15T14:10:28.872Z,100779.72
2023-05-15T14:12:55.227Z,100774.56
2023-05-15T14:15:21.543Z,100778.34
2023-05-15T14:17:48.761Z,100771.72
2023-05-15T14:20:15.212Z,100770.41
2023-05-15T14:22:41.574Z,100773.66
2023-05-15T14:25:08.795Z,100778.47
2023-05-15T14:27:35.561Z,100769.13
2023-05-15T14:30:02.014Z,100761.88
2023-05-15T14:32:28.439Z,100769.66
2023-05-15T14:34:56.974Z,100770.25
2023-05-15T14:37:23.334Z,100771.13
2023-05-15T14:39:49.744Z,100765.69
2023-05-15T14:42:17.400Z,100766.63
2023-05-15T14:44:43.823Z,100775.09
2023-05-15T14:47:12.325Z,100768.91
2023-05-15T14:49:40.433Z,100769.31
2023-05-15T14:52:08.234Z,100767.09
2023-05-15T14:54:35.669Z,100767.97
2023-05-15T14:57:02.443Z,100759.50
2023-05-15T14:59:28.831Z,100762.84
2023-05-15T15:01:55.328Z,100762.75
2023-05-15T15:04:21.809Z,100762.81
2023-05-15T15:06:48.218Z,100761.84
2023-05-15T15:09:14.537Z,100763.22
2023-05-15T15:11:41.041Z,100760.19
2023-05-15T15:14:07.496Z,100763.66
2023-05-15T15:16:33.977Z,100762.81
2023-05-15T15:19:00.340Z,100766.69
2023-05-15T15:21:26.978Z,100766.06
2023-05-15T15:23:54.680Z,100762.16
2023-05-15T15:26:21.763Z,100760.69
2023-05-15T15:28:48.298Z,100762.66
2023-05-15T15:31:15.402Z,100762.66
2023-05-15T15:33:41.804Z,100757.78
2023-05-15T15:36:08.171Z,100755.47
2023-05-15T15:38:34.595Z,100769.13
2023-05-15T15:41:02.089Z,100775.50
2023-05-15T15:43:28.431Z,100780.19
2023-05-15T15:45:55.309Z,100775.19
2023-05-15T15:48:21.638Z,100777.19
2023-05-15T15:50:47.948Z,100770.63
2023-05-15T15:53:14.435Z,100782.00
2023-05-15T15:55:40.890Z,100781.06
2023-05-15T15:58:07.224Z,100780.13
2023-05-15T16:00:33.727Z,100774.13
2023-05-15T16:03:00.208Z,100779.72
2023-05-15T16:05:26.659Z,100776.78
2023-05-15T16:07:53.085Z,100779.84
2023-05-15T16:10:19.476Z,100780.09
2023-05-15T16:12:46.347Z,100771.41
2023-05-15T16:15:22.600Z,100773.22
2023-05-15T16:17:50.790Z,100759.81
2023-05-15T16:20:17.266Z,100761.63
2023-05-15T16:22:43.888Z,100762.75
2023-05-15T16:25:10.253Z,100767.06
2023-05-15T16:27:36.645Z,100751.13
2023-05-15T16:30:03.061Z,100763.25
2023-05-15T16:32:29.406Z,100757.50
2023-05-15T16:34:55.873Z,100764.88
2023-05-15T16:37:22.182Z,100766.47
2023-05-15T16:39:48.690Z,100767.66
2023-05-15T16:42:16.435Z,100769.03
2023-05-15T16:44:42.898Z,100769.41
2023-05-15T16:47:09.197Z,100769.88
2023-05-15T16:52:19.551Z,100772.09
2023-05-15T16:54:49.146Z,100767.72
2023-05-15T16:57:15.618Z,100770.41
2023-05-15T16:59:41.976Z,100776.69
2023-05-15T17:02:08.447Z,100778.16
2023-05-15T17:04:35.285Z,100776.31
2023-05-15T17:07:01.699Z,100786.84
2023-05-15T17:09:27.982Z,100782.84
2023-05-15T17:11:54.282Z,100780.53
2023-05-15T17:14:21.189Z,100776.88
2023-05-15T17:16:47.745Z,100790.84
2023-05-15T17:19:14.530Z,100795.44
2023-05-15T17:21:41.061Z,100795.72
2023-05-15T17:24:07.540Z,100796.84
2023-05-15T17:26:33.888Z,100799.72
2023-05-15T17:29:00.447Z,100798.22
2023-05-15T17:31:28.829Z,100803.72
2023-05-15T17:33:55.501Z,100811.78
2023-05-15T17:36:21.917Z,100815.78
2023-05-15T17:38:48.406Z,100806.63
2023-05-15T17:41:14.784Z,100818.72
2023-05-15T17:43:41.297Z,100820.22
2023-05-15T17:46:08.185Z,100820.72
2023-05-15T17:48:34.750Z,100824.81
2023-05-15T17:51:01.661Z,100822.56
2023-05-15T17:53:28.017Z,100822.16
2023-05-15T17:55:54.383Z,100830.63
2023-05-15T17:58:21.269Z,100830.75
2023-05-15T18:00:47.729Z,100837.13
2023-05-15T18:03:14.428Z,100831.41
2023-05-15T18:05:40.916Z,100846.66
2023-05-15T18:08:07.376Z,100838.06
2023-05-15T18:10:33.702Z,100844.66
2023-05-15T18:13:00.031Z,100840.59
2023-05-15T18:15:26.618Z,100853.13
2023-05-15T18:17:53.162Z,100846.19
2023-05-15T18:20:19.742Z,100861.44
2023-05-15T18:22:46.102Z,100858.88
2023-05-15T18:25:12.623Z,100864.31
2023-05-15T18:27:39.288Z,100867.19
2023-05-15T18:30:06.154Z,100863.78
2023-05-15T18:32:32.625Z,100860.44
2023-05-15T18:34:59.394Z,100866.78
2023-05-15T18:37:26.428Z,100864.25
2023-05-15T18:39:52.852Z,100859.13
2023-05-15T18:42:19.154Z,100861.13
2023-05-15T18:44:45.810Z,100868.34
2023-05-15T18:47:12.159Z,100867.59
2023-05-15T18:49:38.554Z,100874.03
2023-05-15T18:52:05.422Z,100875.13
2023-05-15T18:54:31.851Z,100883.31
2023-05-15T18:56:58.189Z,100883.59
2023-05-15T18:59:24.600Z,100884.59
2023-05-15T19:01:53.251Z,100889.09
2023-05-15T19:04:20.115Z,100878.38
2023-05-15T19:06:50.155Z,100880.28
2023-05-15T19:09:18.080Z,100882.03
2023-05-15T19:11:49.584Z,100887.44
2023-05-15T19:14:17.768Z,100879.53
2023-05-15T19:16:44.931Z,100889.44
2023-05-15T19:19:11.733Z,100892.19
2023-05-15T19:21:38.541Z,100897.69
2023-05-15T19:24:05.558Z,100905.81
2023-05-15T19:26:32.129Z,100905.94
2023-05-15T19:28:58.817Z,100919.28
2023-05-15T19:31:31.537Z,100915.75
2023-05-15T19:33:58.881Z,100914.09
2023-05-15T19:36:25.944Z,100915.97
2023-05-15T19:38:52.801Z,100917.00
2023-05-15T19:41:19.289Z,100928.63
2023-05-15T19:43:47.177Z,100926.97
2023-05-15T19:46:14.051Z,100936.88
2023-05-15T19:48:40.761Z,100931.69
2023-05-15T19:51:07.467Z,100937.16
2023-05-15T19:53:34.388Z,100937.28
2023-05-15T19:56:00.995Z,100939.16
2023-05-15T19:58:27.681Z,100936.53
2023-05-15T20:00:54.575Z,100943.72
2023-05-15T20:03:21.841Z,100951.75
2023-05-15T20:05:48.352Z,100953.69
2023-05-15T20:08:16.840Z,100955.53
2023-05-15T20:10:43.181Z,100956.50
2023-05-15T20:13:09.504Z,100951.25
2023-05-15T20:15:39.950Z,100956.69
2023-05-15T20:18:07.039Z,100955.88
2023-05-15T20:20:33.564Z,100957.69
2023-05-15T20:22:59.906Z,100956.88
2023-05-15T20:25:26.478Z,100954.25
2023-05-15T20:27:56.884Z,100959.59
2023-05-15T20:30:23.235Z,100958.78
2023-05-15T20:32:49.737Z,100959.69
2023-05-15T20:35:16.835Z,100965.09
2023-05-15T20:37:43.599Z,100961.56
2023-05-15T20:40:13.185Z,100962.50
2023-05-15T20:42:39.884Z,100964.38
2023-05-15T20:45:08.591Z,100961.78
2023-05-15T20:47:35.718Z,100965.41
2023-05-15T20:50:02.168Z,100963.69
2023-05-15T20:52:28.701Z,100966.41
2023-05-15T20:54:55.036Z,100961.19
2023-05-15T20:57:21.527Z,100970.94
2023-05-15T20:59:47.834Z,100961.25
2023-05-15T21:02:14.187Z,100955.97
2023-05-15T21:04:40.835Z,100973.69
2023-05-15T21:07:07.261Z,100970.19
2023-05-15T21:09:33.593Z,100968.50
2023-05-15T21:12:00.071Z,100977.34
2023-05-15T21:14:26.499Z,100979.16
2023-05-15T21:16:52.884Z,100976.56
2023-05-15T21:19:19.356Z,100984.50
2023-05-15T21:21:45.685Z,100986.31
2023-05-15T21:24:12.017Z,100987.19
2023-05-15T21:26:38.333Z,100991.63
2023-05-15T21:29:04.765Z,100980.16
2023-05-15T21:31:31.193Z,100984.63
2023-05-15T21:33:57.584Z,100979.31
2023-05-15T21:36:23.971Z,100986.41
2023-05-15T21:38:50.344Z,100992.59
2023-05-15T21:41:16.949Z,100990.84
2023-05-15T21:43:43.273Z,100999.66
2023-05-15T21:46:09.594Z,100993.50
2023-05-15T21:48:35.929Z,101000.53
2023-05-15T21:51:02.265Z,100998.78
2023-05-15T21:53:28.618Z,101013.75
2023-05-15T21:56:04.070Z,100997.91
2023-05-15T21:58:30.909Z,101004.94
2023-05-15T22:00:57.250Z,101006.69
2023-05-15T22:03:23.758Z,101007.56
2023-05-15T22:05:50.872Z,101017.22
2023-05-15T22:08:17.238Z,101012.81
2023-05-15T22:10:43.652Z,101017.22
2023-05-15T22:13:10.045Z,101014.53
2023-05-15T22:15:36.867Z,101017.22
2023-05-15T22:18:03.859Z,101017.16
2023-05-15T22:20:30.460Z,101017.16
2023-05-15T22:22:56.876Z,101015.38
2023-05-15T22:25:23.190Z,101020.63
2023-05-15T22:27:49.517Z,101016.19
2023-05-15T22:30:16.031Z,101015.34
2023-05-15T22:32:42.366Z,101016.19
2023-05-15T22:35:09.055Z,101020.56
2023-05-15T22:37:35.562Z,101017.88
2023-05-15T22:40:01.996Z,101021.41
2023-05-15T22:42:28.722Z,101024.91
2023-05-15T22:44:57.992Z,101024.03
2023-05-15T22:47:24.971Z,101031.03
2023-05-15T22:49:51.354Z,101029.28
2023-05-15T22:52:18.111Z,101035.41
2023-05-15T22:54:44.512Z,101027.47
2023-05-15T22:57:10.861Z,101026.56
2023-05-15T22:59:37.401Z,101038.84
2023-05-15T23:02:04.006Z,101039.72
2023-05-15T23:04:30.468Z,101037.06
2023-05-15T23:06:56.941Z,101041.41
2023-05-15T23:09:23.286Z,101043.16
2023-05-15T23:11:49.593Z,101047.53
2023-05-15T23:14:17.416Z,101041.44
2023-05-15T23:16:44.349Z,101043.16
2023-05-15T23:19:10.725Z,101047.59
2023-05-15T23:21:37.918Z,101048.47
2023-05-15T23:24:04.376Z,101046.66
2023-05-15T23:26:30.691Z,101055.44
2023-05-15T23:28:56.994Z,101059.78
2023-05-15T23:31:23.434Z,101056.25
2023-05-15T23:33:50.164Z,101053.59
2023-05-15T23:36:16.542Z,101053.63
2023-05-15T23:38:43.490Z,101057.19
2023-05-15T23:41:09.774Z,101056.25
2023-05-15T23:43:36.122Z,101051.88
2023-05-15T23:46:02.576Z,101053.59
2023-05-15T23:48:31.617Z,101054.47
2023-05-15T23:50:58.644Z,101054.47
2023-05-15T23:53:25.001Z,101045.63
2023-05-15T23:55:51.347Z,101049.16
2023-05-15T23:58:17.841Z,101053.53
